Aérodrome :
LOGIN :

S'inscrire | Disclaimer

   EN    FR    IT 

 










Légende :    VFR   VFR Marginal   IFR   IFR Intensif   IFR Très Intensif
Visi : 
Plafond : 
>= 8 km
>= 3000ft
5 à 8 km
1000 à 3000 ft
1500m à 5 km
500 à 1000 ft
800 à 1500m
200 à 500 ft
< 800m
< 200 ft
Symboles :   Orages  Brouillard  Fortes neiges  Fortes précipitations  Vent > 20 kt
SIGMETs :   Divers  Orages  Givrage  Turbulence  Onde Orograph.  Cendres Volcan.







- Altitude de l'aérodrome : 659 ft
- Code IATA : LYN
- Voir les cartes d'approche


LFLY - Lyon Bron

DERNIER METAR :
  • 231530Z AUTO 18010KT CAVOK 18/05 Q1008 TEMPO 18020G30KT

METARs EXPIRÉS :
  • 231500Z AUTO 18014KT CAVOK 19/03 Q1009 TEMPO 18020G30KT
  • 231430Z AUTO 18016KT CAVOK 19/04 Q1009 TEMPO 18020G30KT
  • 231400Z AUTO 18015G25KT CAVOK 19/05 Q1009 NOSIG
  • 231330Z AUTO 18011KT CAVOK 18/06 Q1009 TEMPO 18020G30KT
  • 231300Z AUTO 18013KT CAVOK 17/06 Q1010 TEMPO 18020G30KT

TAF TAF LFLY
Valide du 23 à 12h jusqu'au 24 à 12h UTC


231100Z 2312/2412 18015KT CAVOK
TEMPO 2312/2318 18020G30KT
BECMG 2321/2323 -RA BKN014 OVC045
BECMG 2403/2405 36010KT
PROB40
TEMPO 2405/2412 SHRA
ATIS : +33 4 72 15 87 96
Pas de NOTAMs connus pour ce terrain.



MET'MAP, la Météo Aéronautique d'un coup d'oeil ! - Copyright ORBIFLY Décembre 2007 - Disclaimer

ORBIFLY MET'MAP TEAM :

Programmation & Développement : Alexandra Zaïnal
Conception & Développement : Baudouin d'Aumeries
Co-Programmation & Développement : Marc-Olivier Méhu
Soutien technique & logistique : Manuel Goepfert

Contact : metmap@orbifly.com




SOURCES & CREDITS :

   NOAA